createdAt,value
2022-11-06T00:01:51.850Z,97617.13
2022-11-06T00:04:19.335Z,97611.31
2022-11-06T00:06:49.601Z,97630.13
2022-11-06T00:09:19.813Z,97628.72
2022-11-06T00:11:48.944Z,97646.16
2022-11-06T00:14:17.478Z,97637.56
2022-11-06T00:16:47.403Z,97638.47
2022-11-06T00:19:15.428Z,97640.38
2022-11-06T00:21:43.503Z,97641.66
2022-11-06T00:24:13.742Z,97644.31
2022-11-06T00:26:41.213Z,97653.31
2022-11-06T00:29:13.911Z,97647.53
2022-11-06T00:31:41.542Z,97654.94
2022-11-06T00:34:10.956Z,97655.53
2022-11-06T00:36:38.807Z,97635.31
2022-11-06T00:39:06.185Z,97646.16
2022-11-06T00:41:33.494Z,97647.72
2022-11-06T00:44:02.833Z,97655.88
2022-11-06T00:46:30.628Z,97661.06
2022-11-06T00:48:58.440Z,97661.19
2022-11-06T00:51:29.246Z,97657.13
2022-11-06T00:53:59.021Z,97660.16
2022-11-06T00:56:27.164Z,97657.31
2022-11-06T00:58:55.475Z,97663.31
2022-11-06T01:01:25.613Z,97668.59
2022-11-06T01:04:04.659Z,97666.75
2022-11-06T01:06:40.716Z,97651.25
2022-11-06T01:09:08.942Z,97663.91
2022-11-06T01:12:07.028Z,97676.00
2022-11-06T01:14:28.404Z,97677.09
2022-11-06T01:16:55.805Z,97675.22
2022-11-06T01:19:23.774Z,97673.81
2022-11-06T01:21:53.316Z,97672.88
2022-11-06T01:24:26.853Z,97672.06
2022-11-06T01:29:42.511Z,97671.16
2022-11-06T01:32:10.679Z,97678.84
2022-11-06T01:34:38.081Z,97668.31
2022-11-06T01:37:06.383Z,97686.22
2022-11-06T01:39:35.602Z,97687.63
2022-11-06T01:42:03.164Z,97695.16
2022-11-06T01:44:56.577Z,97694.81
2022-11-06T01:47:27.595Z,97701.44
2022-11-06T01:49:59.081Z,97691.84
2022-11-06T01:52:28.551Z,97678.88
2022-11-06T01:55:01.104Z,97691.56
2022-11-06T01:57:30.455Z,97698.34
2022-11-06T01:59:58.206Z,97687.81
2022-11-06T02:02:25.846Z,97695.66
2022-11-06T02:04:53.274Z,97697.22
2022-11-06T02:07:21.565Z,97694.84
2022-11-06T02:09:48.973Z,97691.16
2022-11-06T02:12:34.967Z,97699.47
2022-11-06T02:15:29.709Z,97694.59
2022-11-06T02:18:07.980Z,97703.09
2022-11-06T02:21:21.823Z,97696.50
2022-11-06T02:24:06.555Z,97715.19
2022-11-06T02:27:04.529Z,97709.16
2022-11-06T02:29:35.804Z,97707.66
2022-11-06T02:32:11.608Z,97710.78
2022-11-06T02:34:40.517Z,97698.91
2022-11-06T02:37:12.825Z,97707.66
2022-11-06T02:39:44.947Z,97704.72
2022-11-06T02:42:16.731Z,97717.91
2022-11-06T02:44:46.970Z,97702.53
2022-11-06T02:47:15.457Z,97714.47
2022-11-06T02:49:55.080Z,97706.09
2022-11-06T02:52:33.044Z,97724.13
2022-11-06T02:55:26.202Z,97708.16
2022-11-06T02:58:01.271Z,97713.22
2022-11-06T03:00:29.148Z,97700.50
2022-11-06T03:03:04.773Z,97712.56
2022-11-06T03:05:39.714Z,97719.00
2022-11-06T03:08:25.700Z,97723.72
2022-11-06T03:11:03.781Z,97721.84
2022-11-06T03:13:54.185Z,97725.91
2022-11-06T03:16:44.647Z,97715.72
2022-11-06T03:19:18.822Z,97709.25
2022-11-06T03:22:09.253Z,97714.88
2022-11-06T03:24:39.658Z,97730.88
2022-11-06T03:27:14.945Z,97737.56
2022-11-06T03:30:03.254Z,97717.78
2022-11-06T03:33:03.351Z,97736.13
2022-11-06T03:35:55.670Z,97724.97
2022-11-06T03:38:32.590Z,97723.13
2022-11-06T03:41:10.729Z,97719.03
2022-11-06T03:43:42.809Z,97722.03
2022-11-06T03:46:16.848Z,97730.03
2022-11-06T03:48:49.875Z,97722.03
2022-11-06T03:51:29.139Z,97730.31
2022-11-06T03:54:03.007Z,97731.59
2022-11-06T03:56:41.847Z,97738.00
2022-11-06T03:59:10.960Z,97729.38
2022-11-06T04:01:44.679Z,97738.00
2022-11-06T04:04:19.657Z,97738.94
2022-11-06T04:06:57.704Z,97749.91
2022-11-06T04:09:47.644Z,97731.72
2022-11-06T04:12:38.767Z,97744.13
2022-11-06T04:15:09.568Z,97739.41
2022-11-06T04:17:38.506Z,97744.56
2022-11-06T04:20:10.990Z,97739.09
2022-11-06T04:22:47.477Z,97754.16
2022-11-06T04:25:42.404Z,97759.66
2022-11-06T04:28:35.145Z,97746.94
2022-11-06T04:31:11.492Z,97762.50
2022-11-06T04:33:57.107Z,97762.97
2022-11-06T04:36:55.565Z,97755.94
2022-11-06T04:39:26.174Z,97774.94
2022-11-06T04:42:28.571Z,97770.84
2022-11-06T04:45:03.627Z,97761.75
2022-11-06T04:47:31.892Z,97773.19
2022-11-06T04:50:02.484Z,97759.88
2022-11-06T04:52:30.720Z,97762.53
2022-11-06T04:54:59.601Z,97764.28
2022-11-06T04:57:27.429Z,97765.53
2022-11-06T04:59:57.136Z,97749.03
2022-11-06T05:02:24.987Z,97754.72
2022-11-06T05:04:52.897Z,97752.66
2022-11-06T05:07:20.869Z,97749.19
2022-11-06T05:09:48.252Z,97745.25
2022-11-06T05:12:15.626Z,97762.69
2022-11-06T05:14:43.127Z,97755.63
2022-11-06T05:17:10.507Z,97755.31
2022-11-06T05:19:37.887Z,97757.16
2022-11-06T05:22:23.859Z,97751.03
2022-11-06T05:24:51.250Z,97756.97
2022-11-06T05:27:19.003Z,97753.22
2022-11-06T05:29:46.510Z,97752.56
2022-11-06T05:32:13.937Z,97759.66
2022-11-06T05:34:43.568Z,97754.13
2022-11-06T05:37:12.362Z,97760.41
2022-11-06T05:39:41.980Z,97751.47
2022-11-06T05:42:10.009Z,97747.22
2022-11-06T05:44:38.231Z,97747.84
2022-11-06T05:47:05.601Z,97754.09
2022-11-06T05:49:32.922Z,97748.88
2022-11-06T05:52:00.297Z,97757.19
2022-11-06T05:54:27.773Z,97750.28
2022-11-06T05:56:55.152Z,97758.31
2022-11-06T05:59:22.560Z,97752.44
2022-11-06T06:01:50.017Z,97754.88
2022-11-06T06:04:17.443Z,97759.13
2022-11-06T06:06:45.164Z,97756.25
2022-11-06T06:09:12.454Z,97753.25
2022-11-06T06:11:40.438Z,97754.19
2022-11-06T06:14:07.858Z,97742.69
2022-11-06T06:16:35.275Z,97747.72
2022-11-06T06:19:02.752Z,97739.53
2022-11-06T06:21:30.092Z,97740.13
2022-11-06T06:23:57.532Z,97734.31
2022-11-06T06:26:24.897Z,97745.63
2022-11-06T06:28:52.248Z,97737.28
2022-11-06T06:31:19.580Z,97742.09
2022-11-06T06:33:46.944Z,97735.38
2022-11-06T06:36:14.546Z,97742.13
2022-11-06T06:38:42.456Z,97757.22
2022-11-06T06:41:09.949Z,97753.09
2022-11-06T06:43:37.543Z,97743.00
2022-11-06T06:46:07.666Z,97747.53
2022-11-06T06:48:36.023Z,97753.34
2022-11-06T06:51:04.070Z,97752.03
2022-11-06T06:53:31.398Z,97750.16
2022-11-06T06:56:00.900Z,97757.53
2022-11-06T06:58:29.385Z,97747.50
2022-11-06T07:01:01.378Z,97741.16
2022-11-06T07:03:29.166Z,97748.53
2022-11-06T07:05:58.772Z,97743.00
2022-11-06T07:08:27.578Z,97762.63
2022-11-06T07:11:03.036Z,97740.44
2022-11-06T07:13:35.465Z,97747.22
2022-11-06T07:16:09.166Z,97742.34
2022-11-06T07:18:37.614Z,97754.59
2022-11-06T07:21:11.047Z,97750.63
2022-11-06T07:23:38.978Z,97746.03
2022-11-06T07:26:06.959Z,97747.34
2022-11-06T07:28:34.498Z,97742.53
2022-11-06T07:31:04.170Z,97747.81
2022-11-06T07:33:31.765Z,97747.81
2022-11-06T07:36:04.498Z,97743.69
2022-11-06T07:38:34.802Z,97745.25
2022-11-06T07:41:11.209Z,97741.41
2022-11-06T07:43:39.344Z,97754.69
2022-11-06T07:46:09.036Z,97742.19
2022-11-06T07:48:36.468Z,97739.59
2022-11-06T07:51:06.399Z,97727.97
2022-11-06T07:53:34.538Z,97730.91
2022-11-06T07:56:02.363Z,97734.38
2022-11-06T07:58:29.904Z,97726.69
2022-11-06T08:00:59.216Z,97726.78
2022-11-06T08:03:30.486Z,97727.91
2022-11-06T08:05:59.081Z,97726.34
2022-11-06T08:08:27.735Z,97723.34
2022-11-06T08:10:55.358Z,97725.53
2022-11-06T08:13:22.723Z,97728.34
2022-11-06T08:15:50.213Z,97719.22
2022-11-06T08:18:17.843Z,97718.25
2022-11-06T08:20:46.553Z,97718.94
2022-11-06T08:23:14.601Z,97717.63
2022-11-06T08:25:42.020Z,97717.47
2022-11-06T08:28:09.980Z,97716.91
2022-11-06T08:30:37.528Z,97716.91
2022-11-06T08:33:08.274Z,97725.31
2022-11-06T08:35:35.855Z,97719.84
2022-11-06T08:38:04.201Z,97712.34
2022-11-06T08:40:32.683Z,97723.50
2022-11-06T08:43:01.590Z,97719.72
2022-11-06T08:45:29.243Z,97722.94
2022-11-06T08:48:01.899Z,97727.09
2022-11-06T08:50:29.992Z,97726.31
2022-11-06T08:52:58.453Z,97735.25
2022-11-06T08:55:25.809Z,97720.81
2022-11-06T08:57:56.290Z,97732.25
2022-11-06T09:00:24.208Z,97730.66
2022-11-06T09:02:51.911Z,97737.47
2022-11-06T09:05:19.380Z,97734.91
2022-11-06T09:07:46.765Z,97733.00
2022-11-06T09:10:14.167Z,97731.91
2022-11-06T09:12:41.602Z,97730.66
2022-11-06T09:15:09.399Z,97734.44
2022-11-06T09:17:44.155Z,97746.31
2022-11-06T09:20:13.473Z,97749.06
2022-11-06T09:22:41.518Z,97737.94
2022-11-06T09:25:10.132Z,97742.63
2022-11-06T09:27:47.631Z,97749.66
2022-11-06T09:30:18.270Z,97746.19
2022-11-06T09:32:51.351Z,97748.53
2022-11-06T09:35:20.005Z,97743.84
2022-11-06T09:37:47.662Z,97748.41
2022-11-06T09:40:34.624Z,97745.19
2022-11-06T09:43:15.360Z,97751.66
2022-11-06T09:45:43.537Z,97753.19
2022-11-06T09:48:16.383Z,97742.81
2022-11-06T09:50:57.234Z,97745.72
2022-11-06T09:53:41.177Z,97748.63
2022-11-06T09:56:13.256Z,97744.66
2022-11-06T09:58:44.104Z,97748.72
2022-11-06T10:01:23.402Z,97751.50
2022-11-06T10:03:57.170Z,97747.91
2022-11-06T10:06:25.929Z,97740.13
2022-11-06T10:08:58.584Z,97745.66
2022-11-06T10:11:36.123Z,97753.69
2022-11-06T10:14:27.682Z,97758.63
2022-11-06T10:17:13.552Z,97758.84
2022-11-06T10:19:56.412Z,97758.84
2022-11-06T10:22:34.562Z,97746.75
2022-11-06T10:25:22.369Z,97754.06
2022-11-06T10:28:11.771Z,97753.22
2022-11-06T10:31:08.069Z,97758.13
2022-11-06T10:33:55.815Z,97757.41
2022-11-06T10:36:35.211Z,97759.69
2022-11-06T10:39:05.016Z,97765.56
2022-11-06T10:41:35.926Z,97766.00
2022-11-06T10:44:13.204Z,97771.56
2022-11-06T10:46:49.349Z,97766.81
2022-11-06T10:49:54.383Z,97775.34
2022-11-06T10:52:31.372Z,97776.19
2022-11-06T10:55:26.525Z,97774.03
2022-11-06T10:58:07.382Z,97780.97
2022-11-06T11:00:35.606Z,97780.88
2022-11-06T11:03:06.900Z,97774.75
2022-11-06T11:05:44.584Z,97777.84
2022-11-06T11:08:42.821Z,97782.19
2022-11-06T11:11:16.193Z,97777.09
2022-11-06T11:13:48.775Z,97787.03
2022-11-06T11:16:30.028Z,97779.13
2022-11-06T11:19:16.726Z,97782.38
2022-11-06T11:21:59.508Z,97791.84
2022-11-06T11:24:27.898Z,97791.31
2022-11-06T11:27:07.360Z,97805.25
2022-11-06T11:29:45.038Z,97798.88
2022-11-06T11:32:16.381Z,97799.97
2022-11-06T11:34:56.593Z,97802.47
2022-11-06T11:37:32.536Z,97807.03
2022-11-06T11:40:19.933Z,97799.16
2022-11-06T11:42:47.327Z,97811.00
2022-11-06T11:45:19.612Z,97807.66
2022-11-06T11:47:49.917Z,97820.25
2022-11-06T11:50:26.033Z,97815.53
2022-11-06T11:53:10.175Z,97806.44
2022-11-06T11:55:45.538Z,97818.22
2022-11-06T11:58:24.346Z,97814.91
2022-11-06T12:01:04.724Z,97809.75
2022-11-06T12:03:42.161Z,97814.91
2022-11-06T12:06:18.895Z,97823.72
2022-11-06T12:08:56.364Z,97822.78
2022-11-06T12:11:26.278Z,97823.28
2022-11-06T12:14:21.664Z,97816.13
2022-11-06T12:16:51.948Z,97827.53
2022-11-06T12:19:24.482Z,97823.00
2022-11-06T12:22:00.207Z,97817.66
2022-11-06T12:24:44.141Z,97832.22
2022-11-06T12:27:20.873Z,97828.63
2022-11-06T12:29:56.758Z,97832.94
2022-11-06T12:32:37.353Z,97827.81
2022-11-06T12:35:04.638Z,97834.56
2022-11-06T12:37:46.959Z,97838.13
2022-11-06T12:40:24.688Z,97836.41
2022-11-06T12:42:52.940Z,97838.50
2022-11-06T12:45:23.761Z,97834.41
2022-11-06T12:48:17.661Z,97836.25
2022-11-06T12:51:18.595Z,97839.97
2022-11-06T12:54:03.096Z,97845.53
2022-11-06T12:56:49.494Z,97836.69
2022-11-06T12:59:27.828Z,97849.13
2022-11-06T13:02:35.354Z,97842.03
2022-11-06T13:05:15.468Z,97849.63
2022-11-06T13:08:01.416Z,97848.16
2022-11-06T13:10:48.973Z,97857.63
2022-11-06T13:13:33.454Z,97848.81
2022-11-06T13:16:37.435Z,97845.66
2022-11-06T13:19:23.195Z,97862.13
2022-11-06T13:22:11.731Z,97865.31
2022-11-06T13:24:48.617Z,97857.63
2022-11-06T13:27:31.172Z,97870.16
2022-11-06T13:30:12.447Z,97869.22
2022-11-06T13:32:47.351Z,97871.78
2022-11-06T13:35:21.137Z,97875.53
2022-11-06T13:37:50.420Z,97877.44
2022-11-06T13:40:36.477Z,97879.31
2022-11-06T13:43:17.337Z,97880.56
2022-11-06T13:46:13.059Z,97878.00
2022-11-06T13:49:28.528Z,97879.69
2022-11-06T13:52:02.857Z,97876.09
2022-11-06T13:54:39.881Z,97882.75
2022-11-06T13:57:25.422Z,97886.31
2022-11-06T14:00:21.005Z,97879.22
2022-11-06T14:03:21.940Z,97874.00
2022-11-06T14:05:58.271Z,97887.56
2022-11-06T14:08:39.712Z,97882.69
2022-11-06T14:11:16.905Z,97887.88
2022-11-06T14:13:59.184Z,97893.22
2022-11-06T14:16:35.024Z,97892.63
2022-11-06T14:19:22.695Z,97890.22
2022-11-06T14:21:56.084Z,97878.78
2022-11-06T14:24:33.344Z,97889.13
2022-11-06T14:27:06.920Z,97893.22
2022-11-06T14:29:37.032Z,97894.31
2022-11-06T14:32:32.190Z,97899.63
2022-11-06T14:35:33.512Z,97892.69
2022-11-06T14:38:09.992Z,97888.75
2022-11-06T14:40:39.269Z,97893.50
2022-11-06T14:43:25.007Z,97891.91
2022-11-06T14:45:59.897Z,97893.66
2022-11-06T14:48:34.198Z,97894.94
2022-11-06T14:51:05.596Z,97897.16
2022-11-06T14:54:01.190Z,97888.59
2022-11-06T14:56:34.169Z,97882.47
2022-11-06T14:59:09.239Z,97891.44
2022-11-06T15:01:38.337Z,97886.72
2022-11-06T15:04:15.510Z,97883.47
2022-11-06T15:06:47.532Z,97879.22
2022-11-06T15:09:16.550Z,97881.22
2022-11-06T15:12:07.843Z,97879.38
2022-11-06T15:14:35.278Z,97881.94
2022-11-06T15:17:13.063Z,97891.47
2022-11-06T15:20:00.057Z,97887.84
2022-11-06T15:22:47.780Z,97881.56
2022-11-06T15:25:20.701Z,97880.00
2022-11-06T15:28:06.055Z,97881.28
2022-11-06T15:30:53.028Z,97872.88
2022-11-06T15:33:40.879Z,97871.34
2022-11-06T15:36:14.084Z,97864.78
2022-11-06T15:38:43.410Z,97871.34
2022-11-06T15:41:19.245Z,97879.53
2022-11-06T15:43:49.838Z,97880.03
2022-11-06T15:46:26.786Z,97872.00
2022-11-06T15:49:18.163Z,97878.38
2022-11-06T15:51:57.844Z,97870.22
2022-11-06T15:54:56.752Z,97876.47
2022-11-06T15:57:28.693Z,97876.22
2022-11-06T16:00:16.350Z,97870.03
2022-11-06T16:02:56.998Z,97872.13
2022-11-06T16:05:25.459Z,97875.59
2022-11-06T16:07:53.241Z,97869.16
2022-11-06T16:10:23.131Z,97866.66
2022-11-06T16:12:56.021Z,97859.50
2022-11-06T16:15:45.409Z,97872.06
2022-11-06T16:18:23.219Z,97863.97
2022-11-06T16:20:57.649Z,97869.00
2022-11-06T16:23:39.257Z,97874.19
2022-11-06T16:26:13.704Z,97869.63
2022-11-06T16:28:47.106Z,97872.63
2022-11-06T16:31:18.020Z,97883.63
2022-11-06T16:33:59.978Z,97871.34
2022-11-06T16:36:30.366Z,97880.31
2022-11-06T16:39:20.962Z,97879.63
2022-11-06T16:42:28.029Z,97878.84
2022-11-06T16:45:02.343Z,97877.47
2022-11-06T16:47:31.169Z,97880.34
2022-11-06T16:49:58.957Z,97884.13
2022-11-06T16:52:39.711Z,97888.66
2022-11-06T16:55:25.458Z,97892.84
2022-11-06T16:57:56.295Z,97894.81
2022-11-06T17:00:31.929Z,97886.78
2022-11-06T17:03:19.106Z,97881.44
2022-11-06T17:05:57.792Z,97886.13
2022-11-06T17:08:39.386Z,97887.88
2022-11-06T17:11:12.989Z,97880.00
2022-11-06T17:13:45.467Z,97880.97
2022-11-06T17:16:23.697Z,97892.47
2022-11-06T17:18:51.979Z,97882.59
2022-11-06T17:21:20.049Z,97884.50
2022-11-06T17:23:48.154Z,97883.38
2022-11-06T17:26:38.040Z,97876.59
2022-11-06T17:29:06.509Z,97882.09
2022-11-06T17:31:33.909Z,97878.16
2022-11-06T17:34:01.366Z,97882.75
2022-11-06T17:36:31.319Z,97884.78
2022-11-06T17:39:00.348Z,97882.75
2022-11-06T17:41:30.809Z,97871.13
2022-11-06T17:44:06.450Z,97887.28
2022-11-06T17:46:39.297Z,97890.72
2022-11-06T17:49:07.628Z,97887.59
2022-11-06T17:52:00.412Z,97882.09
2022-11-06T17:54:34.263Z,97885.84
2022-11-06T17:57:03.988Z,97888.38
2022-11-06T17:59:32.906Z,97884.31
2022-11-06T18:02:00.879Z,97891.03
2022-11-06T18:04:34.517Z,97896.72
2022-11-06T18:07:02.124Z,97890.31
2022-11-06T18:09:29.609Z,97892.50
2022-11-06T18:11:57.088Z,97889.22
2022-11-06T18:14:26.126Z,97898.03
2022-11-06T18:16:53.958Z,97893.63
2022-11-06T18:19:23.666Z,97892.88
2022-11-06T18:21:52.627Z,97898.97
2022-11-06T18:24:20.037Z,97882.97
2022-11-06T18:26:47.953Z,97894.94
2022-11-06T18:29:15.721Z,97892.88
2022-11-06T18:31:43.308Z,97900.69
2022-11-06T18:34:18.344Z,97907.16
2022-11-06T18:36:50.997Z,97897.09
2022-11-06T18:39:20.739Z,97903.38
2022-11-06T18:41:48.340Z,97908.53
2022-11-06T18:44:18.065Z,97897.53
2022-11-06T18:46:46.930Z,97909.63
2022-11-06T18:49:14.731Z,97899.75
2022-11-06T18:51:42.403Z,97907.63
2022-11-06T18:54:11.542Z,97903.22
2022-11-06T18:56:39.371Z,97906.69
2022-11-06T18:59:08.367Z,97899.59
2022-11-06T19:01:36.021Z,97902.59
2022-11-06T19:04:04.873Z,97897.41
2022-11-06T19:06:33.213Z,97901.78
2022-11-06T19:09:00.746Z,97896.59
2022-11-06T19:11:28.203Z,97891.53
2022-11-06T19:13:55.586Z,97890.75
2022-11-06T19:16:23.064Z,97885.25
2022-11-06T19:21:30.952Z,97897.22
2022-11-06T19:24:05.251Z,97898.34
2022-11-06T19:26:37.399Z,97891.56
2022-11-06T19:29:08.375Z,97881.53
2022-11-06T19:31:37.809Z,97898.53
2022-11-06T19:34:06.967Z,97893.63
2022-11-06T19:36:34.420Z,97892.88
2022-11-06T19:39:02.247Z,97902.91
2022-11-06T19:41:29.909Z,97902.91
2022-11-06T19:43:57.388Z,97887.41
2022-11-06T19:46:27.222Z,97897.09
2022-11-06T19:48:55.921Z,97901.81
2022-11-06T19:51:23.396Z,97892.53
2022-11-06T19:53:53.593Z,97897.84
2022-11-06T19:56:21.932Z,97897.84
2022-11-06T19:58:50.421Z,97894.41
2022-11-06T20:01:20.672Z,97897.53
2022-11-06T20:03:48.223Z,97898.03
2022-11-06T20:06:16.590Z,97900.53
2022-11-06T20:08:47.771Z,97898.47
2022-11-06T20:11:16.443Z,97901.13
2022-11-06T20:13:45.548Z,97901.78
2022-11-06T20:16:18.301Z,97907.56
2022-11-06T20:18:54.555Z,97900.84
2022-11-06T20:21:23.242Z,97907.44
2022-11-06T20:23:50.709Z,97908.09
2022-11-06T20:26:18.825Z,97912.31
2022-11-06T20:28:47.284Z,97902.75
2022-11-06T20:31:18.725Z,97915.31
2022-11-06T20:33:48.122Z,97908.84
2022-11-06T20:36:26.723Z,97915.72
2022-11-06T20:38:55.920Z,97902.06
2022-11-06T20:41:24.420Z,97901.47
2022-11-06T20:43:53.325Z,97905.22
2022-11-06T20:46:21.688Z,97899.88
2022-11-06T20:48:50.091Z,97907.13
2022-11-06T20:51:21.755Z,97894.53
2022-11-06T20:53:50.010Z,97902.22
2022-11-06T20:56:20.864Z,97898.94
2022-11-06T20:58:48.533Z,97906.16
2022-11-06T21:01:25.690Z,97904.91
2022-11-06T21:03:53.806Z,97889.06
2022-11-06T21:06:24.573Z,97895.63
2022-11-06T21:08:52.358Z,97884.97
2022-11-06T21:11:23.183Z,97904.13
2022-11-06T21:13:53.614Z,97902.22
2022-11-06T21:16:27.764Z,97897.69
2022-11-06T21:18:55.333Z,97893.00
2022-11-06T21:21:27.917Z,97904.13
2022-11-06T21:23:56.443Z,97889.19
2022-11-06T21:26:27.191Z,97886.50
2022-11-06T21:28:56.055Z,97900.69
2022-11-06T21:31:28.343Z,97888.75
2022-11-06T21:33:58.124Z,97893.16
2022-11-06T21:36:28.557Z,97893.94
2022-11-06T21:38:59.827Z,97894.09
2022-11-06T21:41:29.318Z,97898.34
2022-11-06T21:43:57.603Z,97895.81
2022-11-06T21:46:25.199Z,97898.34
2022-11-06T21:48:53.075Z,97893.47
2022-11-06T21:51:27.079Z,97887.31
2022-11-06T21:54:14.311Z,97901.94
2022-11-06T21:56:42.919Z,97904.63
2022-11-06T21:59:14.064Z,97900.19
2022-11-06T22:01:42.634Z,97895.34
2022-11-06T22:04:11.300Z,97901.97
2022-11-06T22:06:42.271Z,97901.50
2022-11-06T22:09:11.076Z,97912.50
2022-11-06T22:11:40.822Z,97901.16
2022-11-06T22:14:16.762Z,97899.88
2022-11-06T22:16:47.447Z,97908.53
2022-11-06T22:19:16.750Z,97903.53
2022-11-06T22:21:56.276Z,97883.44
2022-11-06T22:24:24.152Z,97890.97
2022-11-06T22:26:54.048Z,97859.41
2022-11-06T22:29:21.575Z,97899.88
2022-11-06T22:31:48.943Z,97896.28
2022-11-06T22:34:16.392Z,97906.19
2022-11-06T22:36:44.344Z,97897.41
2022-11-06T22:39:12.663Z,97902.09
2022-11-06T22:41:41.911Z,97894.53
2022-11-06T22:44:09.813Z,97901.31
2022-11-06T22:46:37.583Z,97899.75
2022-11-06T22:49:05.749Z,97897.56
2022-11-06T22:51:36.415Z,97903.53
2022-11-06T22:54:04.213Z,97899.91
2022-11-06T22:56:33.298Z,97901.47
2022-11-06T22:59:22.887Z,97896.13
2022-11-06T23:01:50.831Z,97884.84
2022-11-06T23:04:18.847Z,97869.97
2022-11-06T23:06:47.097Z,97887.06
2022-11-06T23:09:20.278Z,97884.56
2022-11-06T23:11:48.285Z,97917.22
2022-11-06T23:14:16.092Z,97865.88
2022-11-06T23:17:01.152Z,97873.44
2022-11-06T23:19:31.129Z,97893.97
2022-11-06T23:22:17.880Z,97899.75
2022-11-06T23:24:45.705Z,97904.81
2022-11-06T23:27:13.532Z,97891.63
2022-11-06T23:29:41.025Z,97897.56
2022-11-06T23:32:11.020Z,97901.50
2022-11-06T23:34:38.580Z,97901.50
2022-11-06T23:37:09.274Z,97897.41
2022-11-06T23:39:39.700Z,97909.31
2022-11-06T23:42:25.219Z,97873.06
2022-11-06T23:45:28.065Z,97909.16
2022-11-06T23:49:03.320Z,97895.81
2022-11-06T23:51:36.152Z,97864.91
2022-11-06T23:54:34.444Z,97896.44
2022-11-06T23:57:20.728Z,97856.59
2022-11-06T23:59:49.027Z,97889.25
